DFW weather

Dallas Fort Worth International Airport
Dallas-Fort Worth, Texas, United States

Public forecast

Using degrees Fahrenheit for public forecast. Weather courtesy of forecast.io.

Current aviation weather report (METAR) for Dallas Fort Worth International Airport

Retrieved 2019/10/23 00:53 UTC (9 minutes ago):

KDFW 230053Z 16003KT 10SM CLR 18/01 A3011 RMK AO2 SLP191 T01780006

Aviation forecast (TAF) for Dallas Fort Worth International Airport

Retrieved 2019-10-23 00:33 UTC (29 minutes ago):

TAF KDFW 222330Z 2300/2406 18005KT P6SM SKC FM231600 18016G30KT P6SM SKC FM240000 18013KT P6SM SKC